sensor_id;sensor_type;location;lat;lon;timestamp;P1;P2;P0
77481;PMS5003;66582;43.004;-75.010;2023-05-14T00:00:00;14;14;
77481;PMS5003;66582;43.004;-75.010;2023-05-14T00:02:25;19;17;
77481;PMS5003;66582;43.004;-75.010;2023-05-14T00:04:51;21;20;
77481;PMS5003;66582;43.004;-75.010;2023-05-14T00:07:16;14;14;
77481;PMS5003;66582;43.004;-75.010;2023-05-14T00:09:41;15;15;
77481;PMS5003;66582;43.004;-75.010;2023-05-14T00:12:08;21;20;
77481;PMS5003;66582;43.004;-75.010;2023-05-14T00:14:34;16;15;
77481;PMS5003;66582;43.004;-75.010;2023-05-14T00:16:58;30;28;
77481;PMS5003;66582;43.004;-75.010;2023-05-14T00:19:23;16;16;
77481;PMS5003;66582;43.004;-75.010;2023-05-14T00:21:49;14;14;
77481;PMS5003;66582;43.004;-75.010;2023-05-14T00:24:14;16;16;
77481;PMS5003;66582;43.004;-75.010;2023-05-14T00:26:39;17;17;
77481;PMS5003;66582;43.004;-75.010;2023-05-14T00:29:05;16;16;
77481;PMS5003;66582;43.004;-75.010;2023-05-14T00:31:30;15;15;
77481;PMS5003;66582;43.004;-75.010;2023-05-14T00:33:55;12;12;
77481;PMS5003;66582;43.004;-75.010;2023-05-14T00:36:20;14;14;
77481;PMS5003;66582;43.004;-75.010;2023-05-14T00:38:45;16;16;
77481;PMS5003;66582;43.004;-75.010;2023-05-14T00:41:12;17;17;
77481;PMS5003;66582;43.004;-75.010;2023-05-14T00:43:37;18;17;
77481;PMS5003;66582;43.004;-75.010;2023-05-14T00:46:02;16;16;
77481;PMS5003;66582;43.004;-75.010;2023-05-14T00:48:27;18;18;
77481;PMS5003;66582;43.004;-75.010;2023-05-14T00:50:53;19;17;
77481;PMS5003;66582;43.004;-75.010;2023-05-14T00:53:18;16;15;
77481;PMS5003;66582;43.004;-75.010;2023-05-14T00:55:44;15;15;
77481;PMS5003;66582;43.004;-75.010;2023-05-14T00:58:10;19;18;
77481;PMS5003;66582;43.004;-75.010;2023-05-14T01:00:34;15;15;
77481;PMS5003;66582;43.004;-75.010;2023-05-14T01:03:00;15;14;
77481;PMS5003;66582;43.004;-75.010;2023-05-14T01:05:25;11;10;
77481;PMS5003;66582;43.004;-75.010;2023-05-14T01:07:54;16;16;
77481;PMS5003;66582;43.004;-75.010;2023-05-14T01:10:18;14;14;
77481;PMS5003;66582;43.004;-75.010;2023-05-14T01:12:43;16;15;
77481;PMS5003;66582;43.004;-75.010;2023-05-14T01:15:08;17;16;
77481;PMS5003;66582;43.004;-75.010;2023-05-14T01:17:34;15;15;
77481;PMS5003;66582;43.004;-75.010;2023-05-14T01:19:58;17;15;
77481;PMS5003;66582;43.004;-75.010;2023-05-14T01:22:24;16;16;
77481;PMS5003;66582;43.004;-75.010;2023-05-14T01:24:49;17;15;
77481;PMS5003;66582;43.004;-75.010;2023-05-14T01:27:15;17;17;
77481;PMS5003;66582;43.004;-75.010;2023-05-14T01:29:41;16;14;
77481;PMS5003;66582;43.004;-75.010;2023-05-14T01:32:06;16;15;
77481;PMS5003;66582;43.004;-75.010;2023-05-14T01:34:32;17;16;
77481;PMS5003;66582;43.004;-75.010;2023-05-14T01:36:57;15;14;
77481;PMS5003;66582;43.004;-75.010;2023-05-14T01:39:23;14;13;
77481;PMS5003;66582;43.004;-75.010;2023-05-14T01:41:47;15;15;
77481;PMS5003;66582;43.004;-75.010;2023-05-14T01:44:12;15;15;
77481;PMS5003;66582;43.004;-75.010;2023-05-14T01:46:39;16;15;
77481;PMS5003;66582;43.004;-75.010;2023-05-14T01:49:04;17;15;
77481;PMS5003;66582;43.004;-75.010;2023-05-14T01:51:29;16;15;
77481;PMS5003;66582;43.004;-75.010;2023-05-14T01:53:55;12;12;
77481;PMS5003;66582;43.004;-75.010;2023-05-14T01:56:22;16;15;
77481;PMS5003;66582;43.004;-75.010;2023-05-14T01:58:46;15;14;
77481;PMS5003;66582;43.004;-75.010;2023-05-14T02:01:11;17;15;
77481;PMS5003;66582;43.004;-75.010;2023-05-14T02:03:36;17;15;
77481;PMS5003;66582;43.004;-75.010;2023-05-14T02:06:01;13;12;
77481;PMS5003;66582;43.004;-75.010;2023-05-14T02:08:26;17;16;
77481;PMS5003;66582;43.004;-75.010;2023-05-14T02:10:52;16;15;
77481;PMS5003;66582;43.004;-75.010;2023-05-14T02:13:17;16;16;
77481;PMS5003;66582;43.004;-75.010;2023-05-14T02:15:42;18;16;
77481;PMS5003;66582;43.004;-75.010;2023-05-14T02:18:08;18;16;
77481;PMS5003;66582;43.004;-75.010;2023-05-14T02:20:33;16;15;
77481;PMS5003;66582;43.004;-75.010;2023-05-14T02:22:59;14;14;
77481;PMS5003;66582;43.004;-75.010;2023-05-14T02:25:25;16;15;
77481;PMS5003;66582;43.004;-75.010;2023-05-14T02:27:50;17;16;
77481;PMS5003;66582;43.004;-75.010;2023-05-14T02:30:16;13;13;
77481;PMS5003;66582;43.004;-75.010;2023-05-14T02:32:41;17;16;
77481;PMS5003;66582;43.004;-75.010;2023-05-14T02:35:06;16;15;
77481;PMS5003;66582;43.004;-75.010;2023-05-14T02:37:31;17;16;
77481;PMS5003;66582;43.004;-75.010;2023-05-14T02:39:58;14;14;
77481;PMS5003;66582;43.004;-75.010;2023-05-14T02:42:23;15;14;
77481;PMS5003;66582;43.004;-75.010;2023-05-14T02:44:49;10;10;
77481;PMS5003;66582;43.004;-75.010;2023-05-14T02:47:13;16;16;
77481;PMS5003;66582;43.004;-75.010;2023-05-14T02:49:39;15;14;
77481;PMS5003;66582;43.004;-75.010;2023-05-14T02:52:04;17;17;
77481;PMS5003;66582;43.004;-75.010;2023-05-14T02:54:29;18;16;
77481;PMS5003;66582;43.004;-75.010;2023-05-14T02:56:54;15;15;
77481;PMS5003;66582;43.004;-75.010;2023-05-14T02:59:20;16;16;
77481;PMS5003;66582;43.004;-75.010;2023-05-14T03:01:45;17;16;
77481;PMS5003;66582;43.004;-75.010;2023-05-14T03:04:10;18;17;
77481;PMS5003;66582;43.004;-75.010;2023-05-14T03:06:37;15;14;
77481;PMS5003;66582;43.004;-75.010;2023-05-14T03:09:02;18;17;
77481;PMS5003;66582;43.004;-75.010;2023-05-14T03:11:27;15;14;
77481;PMS5003;66582;43.004;-75.010;2023-05-14T03:13:53;15;15;
77481;PMS5003;66582;43.004;-75.010;2023-05-14T03:16:19;16;16;
77481;PMS5003;66582;43.004;-75.010;2023-05-14T03:18:44;18;17;
77481;PMS5003;66582;43.004;-75.010;2023-05-14T03:21:10;13;13;
77481;PMS5003;66582;43.004;-75.010;2023-05-14T03:23:34;19;18;
77481;PMS5003;66582;43.004;-75.010;2023-05-14T03:26:00;17;16;
77481;PMS5003;66582;43.004;-75.010;2023-05-14T03:28:25;19;18;
77481;PMS5003;66582;43.004;-75.010;2023-05-14T03:30:50;16;15;
77481;PMS5003;66582;43.004;-75.010;2023-05-14T03:33:16;16;14;
77481;PMS5003;66582;43.004;-75.010;2023-05-14T03:35:41;18;16;
77481;PMS5003;66582;43.004;-75.010;2023-05-14T03:38:07;20;19;
77481;PMS5003;66582;43.004;-75.010;2023-05-14T03:40:32;16;15;
77481;PMS5003;66582;43.004;-75.010;2023-05-14T03:42:57;16;15;
77481;PMS5003;66582;43.004;-75.010;2023-05-14T03:45:22;16;15;
77481;PMS5003;66582;43.004;-75.010;2023-05-14T03:47:48;14;14;
77481;PMS5003;66582;43.004;-75.010;2023-05-14T03:50:14;19;17;
77481;PMS5003;66582;43.004;-75.010;2023-05-14T03:52:39;18;17;
77481;PMS5003;66582;43.004;-75.010;2023-05-14T03:55:05;20;18;
77481;PMS5003;66582;43.004;-75.010;2023-05-14T03:57:30;16;15;
77481;PMS5003;66582;43.004;-75.010;2023-05-14T03:59:56;24;21;
77481;PMS5003;66582;43.004;-75.010;2023-05-14T04:02:21;16;16;
77481;PMS5003;66582;43.004;-75.010;2023-05-14T04:04:46;19;18;
77481;PMS5003;66582;43.004;-75.010;2023-05-14T04:07:11;17;16;
77481;PMS5003;66582;43.004;-75.010;2023-05-14T04:09:37;15;14;
77481;PMS5003;66582;43.004;-75.010;2023-05-14T04:12:03;17;16;
77481;PMS5003;66582;43.004;-75.010;2023-05-14T04:14:28;17;16;
77481;PMS5003;66582;43.004;-75.010;2023-05-14T04:16:54;22;19;
77481;PMS5003;66582;43.004;-75.010;2023-05-14T04:19:19;18;18;
77481;PMS5003;66582;43.004;-75.010;2023-05-14T04:21:45;18;17;
77481;PMS5003;66582;43.004;-75.010;2023-05-14T04:24:10;23;19;
77481;PMS5003;66582;43.004;-75.010;2023-05-14T04:26:35;16;16;
77481;PMS5003;66582;43.004;-75.010;2023-05-14T04:29:01;20;19;
77481;PMS5003;66582;43.004;-75.010;2023-05-14T04:31:27;17;16;
77481;PMS5003;66582;43.004;-75.010;2023-05-14T04:33:52;17;15;
77481;PMS5003;66582;43.004;-75.010;2023-05-14T04:36:18;23;19;
77481;PMS5003;66582;43.004;-75.010;2023-05-14T04:38:43;17;17;
77481;PMS5003;66582;43.004;-75.010;2023-05-14T04:41:08;18;17;
77481;PMS5003;66582;43.004;-75.010;2023-05-14T04:43:34;14;14;
77481;PMS5003;66582;43.004;-75.010;2023-05-14T04:45:59;15;15;
77481;PMS5003;66582;43.004;-75.010;2023-05-14T04:48:25;18;17;
77481;PMS5003;66582;43.004;-75.010;2023-05-14T04:50:50;15;15;
77481;PMS5003;66582;43.004;-75.010;2023-05-14T04:53:16;17;17;
77481;PMS5003;66582;43.004;-75.010;2023-05-14T04:55:41;18;18;
77481;PMS5003;66582;43.004;-75.010;2023-05-14T04:58:07;18;16;
77481;PMS5003;66582;43.004;-75.010;2023-05-14T05:00:32;16;14;
77481;PMS5003;66582;43.004;-75.010;2023-05-14T05:02:58;19;16;
77481;PMS5003;66582;43.004;-75.010;2023-05-14T05:05:23;16;15;
77481;PMS5003;66582;43.004;-75.010;2023-05-14T05:07:48;18;17;
77481;PMS5003;66582;43.004;-75.010;2023-05-14T05:10:14;14;14;
77481;PMS5003;66582;43.004;-75.010;2023-05-14T05:12:40;17;15;
77481;PMS5003;66582;43.004;-75.010;2023-05-14T05:15:05;18;16;
77481;PMS5003;66582;43.004;-75.010;2023-05-14T05:17:30;16;15;
77481;PMS5003;66582;43.004;-75.010;2023-05-14T05:19:55;14;12;
77481;PMS5003;66582;43.004;-75.010;2023-05-14T05:22:21;14;14;
77481;PMS5003;66582;43.004;-75.010;2023-05-14T05:24:47;17;16;
77481;PMS5003;66582;43.004;-75.010;2023-05-14T05:27:12;15;14;
77481;PMS5003;66582;43.004;-75.010;2023-05-14T05:29:37;15;15;
77481;PMS5003;66582;43.004;-75.010;2023-05-14T05:32:03;12;11;
77481;PMS5003;66582;43.004;-75.010;2023-05-14T05:34:27;15;14;
77481;PMS5003;66582;43.004;-75.010;2023-05-14T05:36:53;15;13;
77481;PMS5003;66582;43.004;-75.010;2023-05-14T05:39:18;17;14;
77481;PMS5003;66582;43.004;-75.010;2023-05-14T05:41:44;14;14;
77481;PMS5003;66582;43.004;-75.010;2023-05-14T05:44:09;16;15;
77481;PMS5003;66582;43.004;-75.010;2023-05-14T05:46:35;13;13;
77481;PMS5003;66582;43.004;-75.010;2023-05-14T05:49:00;14;14;
77481;PMS5003;66582;43.004;-75.010;2023-05-14T05:51:26;20;18;
77481;PMS5003;66582;43.004;-75.010;2023-05-14T05:53:51;15;15;
77481;PMS5003;66582;43.004;-75.010;2023-05-14T05:56:16;15;15;
77481;PMS5003;66582;43.004;-75.010;2023-05-14T05:58:42;16;16;
77481;PMS5003;66582;43.004;-75.010;2023-05-14T06:01:08;17;17;
77481;PMS5003;66582;43.004;-75.010;2023-05-14T06:03:33;18;17;
77481;PMS5003;66582;43.004;-75.010;2023-05-14T06:05:59;16;15;
77481;PMS5003;66582;43.004;-75.010;2023-05-14T06:08:24;17;16;
77481;PMS5003;66582;43.004;-75.010;2023-05-14T06:10:49;14;14;
77481;PMS5003;66582;43.004;-75.010;2023-05-14T06:13:15;18;16;
77481;PMS5003;66582;43.004;-75.010;2023-05-14T06:15:41;19;18;
77481;PMS5003;66582;43.004;-75.010;2023-05-14T06:18:06;20;19;
77481;PMS5003;66582;43.004;-75.010;2023-05-14T06:20:31;16;16;
77481;PMS5003;66582;43.004;-75.010;2023-05-14T06:22:57;16;14;
77481;PMS5003;66582;43.004;-75.010;2023-05-14T06:25:22;18;17;
77481;PMS5003;66582;43.004;-75.010;2023-05-14T06:27:47;14;13;
77481;PMS5003;66582;43.004;-75.010;2023-05-14T06:30:13;16;15;
77481;PMS5003;66582;43.004;-75.010;2023-05-14T06:32:38;16;15;
77481;PMS5003;66582;43.004;-75.010;2023-05-14T06:35:03;14;13;
77481;PMS5003;66582;43.004;-75.010;2023-05-14T06:37:29;15;13;
77481;PMS5003;66582;43.004;-75.010;2023-05-14T06:39:54;13;12;
77481;PMS5003;66582;43.004;-75.010;2023-05-14T06:42:20;13;13;
77481;PMS5003;66582;43.004;-75.010;2023-05-14T06:44:45;17;16;
77481;PMS5003;66582;43.004;-75.010;2023-05-14T06:47:11;17;16;
77481;PMS5003;66582;43.004;-75.010;2023-05-14T06:49:37;16;13;
77481;PMS5003;66582;43.004;-75.010;2023-05-14T06:52:02;15;13;
77481;PMS5003;66582;43.004;-75.010;2023-05-14T06:54:27;14;14;
77481;PMS5003;66582;43.004;-75.010;2023-05-14T06:56:52;16;15;
77481;PMS5003;66582;43.004;-75.010;2023-05-14T06:59:17;14;13;
77481;PMS5003;66582;43.004;-75.010;2023-05-14T07:01:43;14;13;
77481;PMS5003;66582;43.004;-75.010;2023-05-14T07:04:08;13;13;
77481;PMS5003;66582;43.004;-75.010;2023-05-14T07:06:33;16;15;
77481;PMS5003;66582;43.004;-75.010;2023-05-14T07:08:59;15;15;
77481;PMS5003;66582;43.004;-75.010;2023-05-14T07:11:25;15;14;
77481;PMS5003;66582;43.004;-75.010;2023-05-14T07:13:50;16;15;
77481;PMS5003;66582;43.004;-75.010;2023-05-14T07:16:16;14;14;
77481;PMS5003;66582;43.004;-75.010;2023-05-14T07:18:41;13;13;
77481;PMS5003;66582;43.004;-75.010;2023-05-14T07:21:06;14;13;
77481;PMS5003;66582;43.004;-75.010;2023-05-14T07:23:31;15;14;
77481;PMS5003;66582;43.004;-75.010;2023-05-14T07:25:56;14;14;
77481;PMS5003;66582;43.004;-75.010;2023-05-14T07:28:22;18;16;
77481;PMS5003;66582;43.004;-75.010;2023-05-14T07:30:47;17;15;
77481;PMS5003;66582;43.004;-75.010;2023-05-14T07:33:12;14;14;
77481;PMS5003;66582;43.004;-75.010;2023-05-14T07:35:38;14;12;
77481;PMS5003;66582;43.004;-75.010;2023-05-14T07:38:03;18;14;
77481;PMS5003;66582;43.004;-75.010;2023-05-14T07:40:28;13;12;
77481;PMS5003;66582;43.004;-75.010;2023-05-14T07:42:53;11;11;
77481;PMS5003;66582;43.004;-75.010;2023-05-14T07:45:19;13;11;
77481;PMS5003;66582;43.004;-75.010;2023-05-14T07:47:44;15;13;
77481;PMS5003;66582;43.004;-75.010;2023-05-14T07:50:10;13;12;
77481;PMS5003;66582;43.004;-75.010;2023-05-14T07:52:34;13;12;
77481;PMS5003;66582;43.004;-75.010;2023-05-14T07:55:00;14;13;
77481;PMS5003;66582;43.004;-75.010;2023-05-14T07:57:26;12;11;
77481;PMS5003;66582;43.004;-75.010;2023-05-14T07:59:51;10;8;
77481;PMS5003;66582;43.004;-75.010;2023-05-14T08:02:16;11;11;
77481;PMS5003;66582;43.004;-75.010;2023-05-14T08:04:41;13;12;
77481;PMS5003;66582;43.004;-75.010;2023-05-14T08:07:07;13;11;
77481;PMS5003;66582;43.004;-75.010;2023-05-14T08:09:32;12;12;
77481;PMS5003;66582;43.004;-75.010;2023-05-14T08:11:57;12;12;
77481;PMS5003;66582;43.004;-75.010;2023-05-14T08:14:22;11;10;
77481;PMS5003;66582;43.004;-75.010;2023-05-14T08:16:47;11;10;
77481;PMS5003;66582;43.004;-75.010;2023-05-14T08:19:14;12;12;
77481;PMS5003;66582;43.004;-75.010;2023-05-14T08:21:38;13;12;
77481;PMS5003;66582;43.004;-75.010;2023-05-14T08:24:03;14;11;
77481;PMS5003;66582;43.004;-75.010;2023-05-14T08:26:29;16;11;
77481;PMS5003;66582;43.004;-75.010;2023-05-14T08:28:54;11;10;
77481;PMS5003;66582;43.004;-75.010;2023-05-14T08:31:19;13;13;
77481;PMS5003;66582;43.004;-75.010;2023-05-14T08:33:44;12;11;
77481;PMS5003;66582;43.004;-75.010;2023-05-14T08:36:09;16;13;
77481;PMS5003;66582;43.004;-75.010;2023-05-14T08:38:35;14;14;
77481;PMS5003;66582;43.004;-75.010;2023-05-14T08:41:00;12;11;
77481;PMS5003;66582;43.004;-75.010;2023-05-14T08:43:26;13;13;
77481;PMS5003;66582;43.004;-75.010;2023-05-14T08:45:50;11;11;
77481;PMS5003;66582;43.004;-75.010;2023-05-14T08:48:16;16;14;
77481;PMS5003;66582;43.004;-75.010;2023-05-14T08:50:41;10;10;
77481;PMS5003;66582;43.004;-75.010;2023-05-14T08:53:07;11;10;
77481;PMS5003;66582;43.004;-75.010;2023-05-14T08:55:32;14;14;
77481;PMS5003;66582;43.004;-75.010;2023-05-14T08:57:58;14;13;
77481;PMS5003;66582;43.004;-75.010;2023-05-14T09:00:22;12;11;
77481;PMS5003;66582;43.004;-75.010;2023-05-14T09:02:48;11;10;
77481;PMS5003;66582;43.004;-75.010;2023-05-14T09:05:13;13;13;
77481;PMS5003;66582;43.004;-75.010;2023-05-14T09:07:38;15;14;
77481;PMS5003;66582;43.004;-75.010;2023-05-14T09:10:03;10;9;
77481;PMS5003;66582;43.004;-75.010;2023-05-14T09:12:28;14;12;
77481;PMS5003;66582;43.004;-75.010;2023-05-14T09:14:54;14;13;
77481;PMS5003;66582;43.004;-75.010;2023-05-14T09:17:19;10;10;
77481;PMS5003;66582;43.004;-75.010;2023-05-14T09:19:45;13;13;
77481;PMS5003;66582;43.004;-75.010;2023-05-14T09:22:10;13;10;
77481;PMS5003;66582;43.004;-75.010;2023-05-14T09:24:35;13;11;
77481;PMS5003;66582;43.004;-75.010;2023-05-14T09:27:00;13;13;
77481;PMS5003;66582;43.004;-75.010;2023-05-14T09:29:26;15;14;
77481;PMS5003;66582;43.004;-75.010;2023-05-14T09:31:53;13;12;
77481;PMS5003;66582;43.004;-75.010;2023-05-14T09:36:42;16;14;
77481;PMS5003;66582;43.004;-75.010;2023-05-14T09:39:07;10;10;
77481;PMS5003;66582;43.004;-75.010;2023-05-14T09:41:33;14;13;
77481;PMS5003;66582;43.004;-75.010;2023-05-14T09:43:58;9;9;
77481;PMS5003;66582;43.004;-75.010;2023-05-14T09:46:23;13;9;
77481;PMS5003;66582;43.004;-75.010;2023-05-14T09:48:49;14;14;
77481;PMS5003;66582;43.004;-75.010;2023-05-14T09:51:15;10;10;
77481;PMS5003;66582;43.004;-75.010;2023-05-14T09:53:40;14;14;
77481;PMS5003;66582;43.004;-75.010;2023-05-14T09:56:05;11;9;
77481;PMS5003;66582;43.004;-75.010;2023-05-14T09:58:30;11;9;
77481;PMS5003;66582;43.004;-75.010;2023-05-14T10:00:56;13;13;
77481;PMS5003;66582;43.004;-75.010;2023-05-14T10:03:21;14;14;
77481;PMS5003;66582;43.004;-75.010;2023-05-14T10:05:46;13;10;
77481;PMS5003;66582;43.004;-75.010;2023-05-14T10:08:12;14;11;
77481;PMS5003;66582;43.004;-75.010;2023-05-14T10:10:37;10;9;
77481;PMS5003;66582;43.004;-75.010;2023-05-14T10:13:03;11;10;
77481;PMS5003;66582;43.004;-75.010;2023-05-14T10:15:28;11;10;
77481;PMS5003;66582;43.004;-75.010;2023-05-14T10:17:54;11;9;
77481;PMS5003;66582;43.004;-75.010;2023-05-14T10:20:17;12;11;
77481;PMS5003;66582;43.004;-75.010;2023-05-14T10:22:43;13;13;
77481;PMS5003;66582;43.004;-75.010;2023-05-14T10:25:09;9;9;
77481;PMS5003;66582;43.004;-75.010;2023-05-14T10:27:33;11;11;
77481;PMS5003;66582;43.004;-75.010;2023-05-14T10:29:58;8;8;
77481;PMS5003;66582;43.004;-75.010;2023-05-14T10:32:24;11;10;
77481;PMS5003;66582;43.004;-75.010;2023-05-14T10:34:49;11;10;
77481;PMS5003;66582;43.004;-75.010;2023-05-14T10:37:15;12;12;
77481;PMS5003;66582;43.004;-75.010;2023-05-14T10:39:41;12;10;
77481;PMS5003;66582;43.004;-75.010;2023-05-14T10:42:06;11;11;
77481;PMS5003;66582;43.004;-75.010;2023-05-14T10:44:31;9;9;
77481;PMS5003;66582;43.004;-75.010;2023-05-14T10:46:56;9;9;
77481;PMS5003;66582;43.004;-75.010;2023-05-14T10:49:21;10;9;
77481;PMS5003;66582;43.004;-75.010;2023-05-14T10:51:47;11;10;
77481;PMS5003;66582;43.004;-75.010;2023-05-14T10:54:11;9;8;
77481;PMS5003;66582;43.004;-75.010;2023-05-14T10:56:36;8;7;
77481;PMS5003;66582;43.004;-75.010;2023-05-14T10:59:02;12;9;
77481;PMS5003;66582;43.004;-75.010;2023-05-14T11:01:28;8;7;
77481;PMS5003;66582;43.004;-75.010;2023-05-14T11:03:53;8;8;
77481;PMS5003;66582;43.004;-75.010;2023-05-14T11:06:18;10;9;
77481;PMS5003;66582;43.004;-75.010;2023-05-14T11:08:44;8;8;
77481;PMS5003;66582;43.004;-75.010;2023-05-14T11:11:09;12;10;
77481;PMS5003;66582;43.004;-75.010;2023-05-14T11:13:35;9;9;
77481;PMS5003;66582;43.004;-75.010;2023-05-14T11:16:00;13;10;
77481;PMS5003;66582;43.004;-75.010;2023-05-14T11:18:26;8;8;
77481;PMS5003;66582;43.004;-75.010;2023-05-14T11:20:51;7;6;
77481;PMS5003;66582;43.004;-75.010;2023-05-14T11:23:16;6;6;
77481;PMS5003;66582;43.004;-75.010;2023-05-14T11:25:42;7;6;
77481;PMS5003;66582;43.004;-75.010;2023-05-14T11:28:07;7;7;
77481;PMS5003;66582;43.004;-75.010;2023-05-14T11:30:32;7;7;
77481;PMS5003;66582;43.004;-75.010;2023-05-14T11:32:57;8;6;
77481;PMS5003;66582;43.004;-75.010;2023-05-14T11:35:22;6;6;
77481;PMS5003;66582;43.004;-75.010;2023-05-14T11:37:49;5;5;
77481;PMS5003;66582;43.004;-75.010;2023-05-14T11:40:14;5;5;
77481;PMS5003;66582;43.004;-75.010;2023-05-14T11:42:38;5;5;
77481;PMS5003;66582;43.004;-75.010;2023-05-14T11:45:04;8;7;
77481;PMS5003;66582;43.004;-75.010;2023-05-14T11:47:29;5;5;
77481;PMS5003;66582;43.004;-75.010;2023-05-14T11:49:53;7;7;
77481;PMS5003;66582;43.004;-75.010;2023-05-14T11:52:18;8;7;
77481;PMS5003;66582;43.004;-75.010;2023-05-14T11:54:44;6;6;
77481;PMS5003;66582;43.004;-75.010;2023-05-14T11:57:09;6;6;
77481;PMS5003;66582;43.004;-75.010;2023-05-14T11:59:35;5;5;
77481;PMS5003;66582;43.004;-75.010;2023-05-14T12:02:00;5;5;
77481;PMS5003;66582;43.004;-75.010;2023-05-14T12:04:24;7;6;
77481;PMS5003;66582;43.004;-75.010;2023-05-14T12:06:50;7;6;
77481;PMS5003;66582;43.004;-75.010;2023-05-14T12:09:15;6;6;
77481;PMS5003;66582;43.004;-75.010;2023-05-14T12:11:40;4;4;
77481;PMS5003;66582;43.004;-75.010;2023-05-14T12:14:10;5;5;
77481;PMS5003;66582;43.004;-75.010;2023-05-14T12:16:31;3;3;
77481;PMS5003;66582;43.004;-75.010;2023-05-14T12:18:58;6;5;
77481;PMS5003;66582;43.004;-75.010;2023-05-14T12:21:21;5;4;
77481;PMS5003;66582;43.004;-75.010;2023-05-14T12:23:46;4;4;
77481;PMS5003;66582;43.004;-75.010;2023-05-14T12:26:11;6;5;
77481;PMS5003;66582;43.004;-75.010;2023-05-14T12:28:38;3;3;
77481;PMS5003;66582;43.004;-75.010;2023-05-14T12:31:02;4;4;
77481;PMS5003;66582;43.004;-75.010;2023-05-14T12:33:27;6;5;
77481;PMS5003;66582;43.004;-75.010;2023-05-14T12:35:52;3;3;
77481;PMS5003;66582;43.004;-75.010;2023-05-14T12:38:17;4;4;
77481;PMS5003;66582;43.004;-75.010;2023-05-14T12:40:42;3;3;
77481;PMS5003;66582;43.004;-75.010;2023-05-14T12:43:07;4;4;
77481;PMS5003;66582;43.004;-75.010;2023-05-14T12:45:32;2;2;
77481;PMS5003;66582;43.004;-75.010;2023-05-14T12:47:58;2;2;
77481;PMS5003;66582;43.004;-75.010;2023-05-14T12:50:23;3;3;
77481;PMS5003;66582;43.004;-75.010;2023-05-14T12:52:48;3;3;
77481;PMS5003;66582;43.004;-75.010;2023-05-14T12:55:13;5;5;
77481;PMS5003;66582;43.004;-75.010;2023-05-14T12:57:38;2;2;
77481;PMS5003;66582;43.004;-75.010;2023-05-14T13:00:04;3;3;
77481;PMS5003;66582;43.004;-75.010;2023-05-14T13:02:29;3;3;
77481;PMS5003;66582;43.004;-75.010;2023-05-14T13:04:54;1;1;
77481;PMS5003;66582;43.004;-75.010;2023-05-14T13:07:20;2;1;
77481;PMS5003;66582;43.004;-75.010;2023-05-14T13:09:45;3;1;
77481;PMS5003;66582;43.004;-75.010;2023-05-14T13:12:09;1;0;
77481;PMS5003;66582;43.004;-75.010;2023-05-14T13:14:35;3;2;
77481;PMS5003;66582;43.004;-75.010;2023-05-14T13:17:00;2;2;
77481;PMS5003;66582;43.004;-75.010;2023-05-14T13:19:25;2;2;
77481;PMS5003;66582;43.004;-75.010;2023-05-14T13:21:51;2;2;
77481;PMS5003;66582;43.004;-75.010;2023-05-14T13:24:15;2;2;
77481;PMS5003;66582;43.004;-75.010;2023-05-14T13:26:41;2;2;
77481;PMS5003;66582;43.004;-75.010;2023-05-14T13:29:06;2;2;
77481;PMS5003;66582;43.004;-75.010;2023-05-14T13:31:31;2;1;
77481;PMS5003;66582;43.004;-75.010;2023-05-14T13:33:56;3;3;
77481;PMS5003;66582;43.004;-75.010;2023-05-14T13:36:21;1;1;
77481;PMS5003;66582;43.004;-75.010;2023-05-14T13:38:47;2;2;
77481;PMS5003;66582;43.004;-75.010;2023-05-14T13:41:12;2;1;
77481;PMS5003;66582;43.004;-75.010;2023-05-14T13:43:37;2;2;
77481;PMS5003;66582;43.004;-75.010;2023-05-14T13:46:02;2;2;
77481;PMS5003;66582;43.004;-75.010;2023-05-14T13:48:27;3;3;
77481;PMS5003;66582;43.004;-75.010;2023-05-14T13:50:52;3;3;
77481;PMS5003;66582;43.004;-75.010;2023-05-14T13:53:18;2;2;
77481;PMS5003;66582;43.004;-75.010;2023-05-14T13:55:43;2;2;
77481;PMS5003;66582;43.004;-75.010;2023-05-14T13:58:08;1;1;
77481;PMS5003;66582;43.004;-75.010;2023-05-14T14:00:33;3;3;
77481;PMS5003;66582;43.004;-75.010;2023-05-14T14:02:58;1;1;
77481;PMS5003;66582;43.004;-75.010;2023-05-14T14:05:24;2;2;
77481;PMS5003;66582;43.004;-75.010;2023-05-14T14:07:49;0;0;
77481;PMS5003;66582;43.004;-75.010;2023-05-14T14:10:14;3;3;
77481;PMS5003;66582;43.004;-75.010;2023-05-14T14:12:39;4;4;
77481;PMS5003;66582;43.004;-75.010;2023-05-14T14:15:05;3;2;
77481;PMS5003;66582;43.004;-75.010;2023-05-14T14:17:29;1;1;
77481;PMS5003;66582;43.004;-75.010;2023-05-14T14:19:54;3;3;
77481;PMS5003;66582;43.004;-75.010;2023-05-14T14:22:20;2;2;
77481;PMS5003;66582;43.004;-75.010;2023-05-14T14:24:45;3;3;
77481;PMS5003;66582;43.004;-75.010;2023-05-14T14:27:11;2;2;
77481;PMS5003;66582;43.004;-75.010;2023-05-14T14:29:35;3;3;
77481;PMS5003;66582;43.004;-75.010;2023-05-14T14:32:00;1;1;
77481;PMS5003;66582;43.004;-75.010;2023-05-14T14:34:26;1;1;
77481;PMS5003;66582;43.004;-75.010;2023-05-14T14:36:51;3;3;
77481;PMS5003;66582;43.004;-75.010;2023-05-14T14:39:16;3;2;
77481;PMS5003;66582;43.004;-75.010;2023-05-14T14:41:42;4;3;
77481;PMS5003;66582;43.004;-75.010;2023-05-14T14:44:07;3;3;
77481;PMS5003;66582;43.004;-75.010;2023-05-14T14:46:31;4;3;
77481;PMS5003;66582;43.004;-75.010;2023-05-14T14:48:58;1;1;
77481;PMS5003;66582;43.004;-75.010;2023-05-14T14:51:22;3;2;
77481;PMS5003;66582;43.004;-75.010;2023-05-14T14:53:47;0;0;
77481;PMS5003;66582;43.004;-75.010;2023-05-14T14:56:12;4;3;
77481;PMS5003;66582;43.004;-75.010;2023-05-14T14:58:37;0;0;
77481;PMS5003;66582;43.004;-75.010;2023-05-14T15:01:03;2;2;
77481;PMS5003;66582;43.004;-75.010;2023-05-14T15:03:28;3;3;
77481;PMS5003;66582;43.004;-75.010;2023-05-14T15:05:54;2;2;
77481;PMS5003;66582;43.004;-75.010;2023-05-14T15:08:18;2;2;
77481;PMS5003;66582;43.004;-75.010;2023-05-14T15:10:43;3;3;
77481;PMS5003;66582;43.004;-75.010;2023-05-14T15:13:09;2;2;
77481;PMS5003;66582;43.004;-75.010;2023-05-14T15:15:34;3;3;
77481;PMS5003;66582;43.004;-75.010;2023-05-14T15:17:59;3;2;
77481;PMS5003;66582;43.004;-75.010;2023-05-14T15:20:24;1;1;
77481;PMS5003;66582;43.004;-75.010;2023-05-14T15:22:49;3;3;
77481;PMS5003;66582;43.004;-75.010;2023-05-14T15:25:15;1;1;
77481;PMS5003;66582;43.004;-75.010;2023-05-14T15:27:40;2;2;
77481;PMS5003;66582;43.004;-75.010;2023-05-14T15:30:05;2;2;
77481;PMS5003;66582;43.004;-75.010;2023-05-14T15:32:30;2;2;
77481;PMS5003;66582;43.004;-75.010;2023-05-14T15:34:56;2;2;
77481;PMS5003;66582;43.004;-75.010;2023-05-14T15:37:22;2;2;
77481;PMS5003;66582;43.004;-75.010;2023-05-14T15:39:46;2;2;
77481;PMS5003;66582;43.004;-75.010;2023-05-14T15:42:11;2;2;
77481;PMS5003;66582;43.004;-75.010;2023-05-14T15:44:36;2;2;